sensor_id;sensor_type;location;lat;lon;timestamp;pressure;altitude;pressure_sealevel;temperature;humidity
17060;BME280;8646;49.716;9.266;2023-12-14T00:00:58;99229.56;;;6.97;100.00
17060;BME280;8646;49.716;9.266;2023-12-14T00:04:04;99233.78;;;7.02;100.00
17060;BME280;8646;49.716;9.266;2023-12-14T00:07:07;99237.06;;;7.09;100.00
17060;BME280;8646;49.716;9.266;2023-12-14T00:10:10;99232.44;;;7.12;100.00
17060;BME280;8646;49.716;9.266;2023-12-14T00:13:13;99241.09;;;7.19;100.00
17060;BME280;8646;49.716;9.266;2023-12-14T00:16:16;99252.72;;;7.19;100.00
17060;BME280;8646;49.716;9.266;2023-12-14T00:19:23;99248.22;;;7.20;100.00
17060;BME280;8646;49.716;9.266;2023-12-14T00:22:26;99249.88;;;7.22;100.00
17060;BME280;8646;49.716;9.266;2023-12-14T00:25:29;99254.31;;;7.23;100.00
17060;BME280;8646;49.716;9.266;2023-12-14T00:28:32;99265.09;;;7.23;100.00
17060;BME280;8646;49.716;9.266;2023-12-14T00:31:35;99269.69;;;7.21;100.00
17060;BME280;8646;49.716;9.266;2023-12-14T00:34:39;99267.94;;;7.20;100.00
17060;BME280;8646;49.716;9.266;2023-12-14T00:37:43;99263.19;;;7.25;100.00
17060;BME280;8646;49.716;9.266;2023-12-14T00:40:46;99267.72;;;7.25;100.00
17060;BME280;8646;49.716;9.266;2023-12-14T00:43:49;99273.84;;;7.28;100.00
17060;BME280;8646;49.716;9.266;2023-12-14T00:46:51;99273.84;;;7.28;100.00
17060;BME280;8646;49.716;9.266;2023-12-14T00:49:56;99287.19;;;7.30;100.00
17060;BME280;8646;49.716;9.266;2023-12-14T00:52:58;99242.50;;;7.07;100.00
17060;BME280;8646;49.716;9.266;2023-12-14T00:56:02;99295.06;;;7.35;100.00
17060;BME280;8646;49.716;9.266;2023-12-14T00:59:05;99307.59;;;7.36;100.00
17060;BME280;8646;49.716;9.266;2023-12-14T01:02:08;99302.34;;;7.33;100.00
17060;BME280;8646;49.716;9.266;2023-12-14T01:05:12;99315.72;;;7.34;100.00
17060;BME280;8646;49.716;9.266;2023-12-14T01:08:16;99320.38;;;7.31;100.00
17060;BME280;8646;49.716;9.266;2023-12-14T01:11:19;99329.25;;;7.33;100.00
17060;BME280;8646;49.716;9.266;2023-12-14T01:14:21;99332.75;;;7.35;100.00
17060;BME280;8646;49.716;9.266;2023-12-14T01:17:25;99336.50;;;7.31;100.00
17060;BME280;8646;49.716;9.266;2023-12-14T01:20:30;99342.94;;;7.28;100.00
17060;BME280;8646;49.716;9.266;2023-12-14T01:23:33;99350.13;;;7.27;100.00
17060;BME280;8646;49.716;9.266;2023-12-14T01:26:36;99352.94;;;7.24;100.00
17060;BME280;8646;49.716;9.266;2023-12-14T01:29:39;99353.00;;;7.23;100.00
17060;BME280;8646;49.716;9.266;2023-12-14T01:32:41;99359.25;;;7.23;100.00
17060;BME280;8646;49.716;9.266;2023-12-14T01:35:46;99363.97;;;7.18;100.00
17060;BME280;8646;49.716;9.266;2023-12-14T01:38:49;99343.84;;;7.07;100.00
17060;BME280;8646;49.716;9.266;2023-12-14T01:41:52;99341.38;;;7.02;100.00
17060;BME280;8646;49.716;9.266;2023-12-14T01:44:55;99371.31;;;7.15;100.00
17060;BME280;8646;49.716;9.266;2023-12-14T01:47:57;99383.09;;;7.12;100.00
17060;BME280;8646;49.716;9.266;2023-12-14T01:51:02;99387.66;;;7.10;100.00
17060;BME280;8646;49.716;9.266;2023-12-14T01:54:05;99391.28;;;7.09;100.00
17060;BME280;8646;49.716;9.266;2023-12-14T01:57:08;99397.34;;;7.14;100.00
17060;BME280;8646;49.716;9.266;2023-12-14T02:03:44;99416.97;;;7.16;100.00
17060;BME280;8646;49.716;9.266;2023-12-14T02:06:48;99411.59;;;7.16;100.00
17060;BME280;8646;49.716;9.266;2023-12-14T02:09:51;99410.66;;;7.17;100.00
17060;BME280;8646;49.716;9.266;2023-12-14T02:12:54;99420.38;;;7.21;100.00
17060;BME280;8646;49.716;9.266;2023-12-14T02:15:56;99420.28;;;7.23;100.00
17060;BME280;8646;49.716;9.266;2023-12-14T02:18:59;99424.78;;;7.22;100.00
17060;BME280;8646;49.716;9.266;2023-12-14T02:22:04;99430.31;;;7.19;100.00
17060;BME280;8646;49.716;9.266;2023-12-14T02:25:08;99420.06;;;7.07;100.00
17060;BME280;8646;49.716;9.266;2023-12-14T02:28:11;99438.38;;;7.19;100.00
17060;BME280;8646;49.716;9.266;2023-12-14T02:31:14;99419.06;;;7.10;100.00
17060;BME280;8646;49.716;9.266;2023-12-14T02:34:17;99425.22;;;7.13;100.00
17060;BME280;8646;49.716;9.266;2023-12-14T02:37:22;99445.59;;;7.19;100.00
17060;BME280;8646;49.716;9.266;2023-12-14T02:40:26;99454.53;;;7.19;100.00
17060;BME280;8646;49.716;9.266;2023-12-14T02:43:29;99451.69;;;7.22;100.00
17060;BME280;8646;49.716;9.266;2023-12-14T02:46:32;99450.81;;;7.22;100.00
17060;BME280;8646;49.716;9.266;2023-12-14T02:49:35;99443.81;;;7.18;100.00
17060;BME280;8646;49.716;9.266;2023-12-14T02:52:37;99444.97;;;7.12;100.00
17060;BME280;8646;49.716;9.266;2023-12-14T02:55:42;99459.47;;;7.08;100.00
17060;BME280;8646;49.716;9.266;2023-12-14T02:58:45;99464.03;;;7.06;100.00
17060;BME280;8646;49.716;9.266;2023-12-14T03:01:52;99466.06;;;7.01;100.00
17060;BME280;8646;49.716;9.266;2023-12-14T03:04:55;99486.75;;;6.99;100.00
17060;BME280;8646;49.716;9.266;2023-12-14T03:07:58;99470.63;;;6.99;100.00
17060;BME280;8646;49.716;9.266;2023-12-14T03:11:02;99487.84;;;6.95;100.00
17060;BME280;8646;49.716;9.266;2023-12-14T03:14:05;99487.03;;;6.93;100.00
17060;BME280;8646;49.716;9.266;2023-12-14T03:17:08;99486.09;;;6.94;100.00
17060;BME280;8646;49.716;9.266;2023-12-14T03:20:14;99489.50;;;6.98;100.00
17060;BME280;8646;49.716;9.266;2023-12-14T03:23:17;99494.72;;;7.02;100.00
17060;BME280;8646;49.716;9.266;2023-12-14T03:26:21;99500.09;;;7.02;100.00
17060;BME280;8646;49.716;9.266;2023-12-14T03:29:24;99497.41;;;7.02;100.00
17060;BME280;8646;49.716;9.266;2023-12-14T03:32:27;99509.94;;;7.03;100.00
17060;BME280;8646;49.716;9.266;2023-12-14T03:35:29;99507.22;;;7.03;100.00
17060;BME280;8646;49.716;9.266;2023-12-14T03:38:33;99434.75;;;6.57;100.00
17060;BME280;8646;49.716;9.266;2023-12-14T03:41:37;99527.81;;;7.04;100.00
17060;BME280;8646;49.716;9.266;2023-12-14T03:44:40;99514.47;;;7.01;100.00
17060;BME280;8646;49.716;9.266;2023-12-14T03:47:42;99522.56;;;7.01;100.00
17060;BME280;8646;49.716;9.266;2023-12-14T03:50:45;99528.91;;;6.99;100.00
17060;BME280;8646;49.716;9.266;2023-12-14T03:53:48;99532.75;;;6.93;100.00
17060;BME280;8646;49.716;9.266;2023-12-14T03:56:52;99537.44;;;6.88;100.00
17060;BME280;8646;49.716;9.266;2023-12-14T03:59:55;99535.75;;;6.85;100.00
17060;BME280;8646;49.716;9.266;2023-12-14T04:02:58;99546.44;;;6.87;100.00
17060;BME280;8646;49.716;9.266;2023-12-14T04:06:01;99561.72;;;6.86;100.00
17060;BME280;8646;49.716;9.266;2023-12-14T04:09:04;99568.84;;;6.87;100.00
17060;BME280;8646;49.716;9.266;2023-12-14T04:12:08;99568.66;;;6.92;100.00
17060;BME280;8646;49.716;9.266;2023-12-14T04:15:11;99565.31;;;6.85;100.00
17060;BME280;8646;49.716;9.266;2023-12-14T04:18:14;99584.78;;;6.92;100.00
17060;BME280;8646;49.716;9.266;2023-12-14T04:21:17;99597.31;;;6.93;100.00
17060;BME280;8646;49.716;9.266;2023-12-14T04:24:19;99583.16;;;6.88;100.00
17060;BME280;8646;49.716;9.266;2023-12-14T04:27:25;99591.09;;;6.91;100.00
17060;BME280;8646;49.716;9.266;2023-12-14T04:30:30;99601.81;;;6.93;100.00
17060;BME280;8646;49.716;9.266;2023-12-14T04:33:33;99593.72;;;6.93;100.00
17060;BME280;8646;49.716;9.266;2023-12-14T04:36:36;99606.31;;;6.92;100.00
17060;BME280;8646;49.716;9.266;2023-12-14T04:39:38;99602.78;;;6.90;100.00
17060;BME280;8646;49.716;9.266;2023-12-14T04:42:42;99605.63;;;6.87;100.00
17060;BME280;8646;49.716;9.266;2023-12-14T04:45:45;99608.56;;;6.81;100.00
17060;BME280;8646;49.716;9.266;2023-12-14T04:48:48;99619.41;;;6.78;100.00
17060;BME280;8646;49.716;9.266;2023-12-14T04:51:51;99619.94;;;6.64;100.00
17060;BME280;8646;49.716;9.266;2023-12-14T04:54:53;99622.97;;;6.55;100.00
17060;BME280;8646;49.716;9.266;2023-12-14T04:57:57;99618.00;;;6.44;100.00
17060;BME280;8646;49.716;9.266;2023-12-14T05:01:00;99625.47;;;6.36;100.00
17060;BME280;8646;49.716;9.266;2023-12-14T05:04:04;99641.91;;;6.27;100.00
17060;BME280;8646;49.716;9.266;2023-12-14T05:07:07;99642.25;;;6.18;100.00
17060;BME280;8646;49.716;9.266;2023-12-14T05:10:09;99645.06;;;6.15;100.00
17060;BME280;8646;49.716;9.266;2023-12-14T05:13:14;99653.13;;;6.15;100.00
17060;BME280;8646;49.716;9.266;2023-12-14T05:16:17;99655.72;;;6.17;100.00
17060;BME280;8646;49.716;9.266;2023-12-14T05:19:20;99663.59;;;6.23;100.00
17060;BME280;8646;49.716;9.266;2023-12-14T05:22:22;99662.53;;;6.27;100.00
17060;BME280;8646;49.716;9.266;2023-12-14T05:25:25;99673.28;;;6.27;100.00
17060;BME280;8646;49.716;9.266;2023-12-14T05:28:29;99677.69;;;6.29;100.00
17060;BME280;8646;49.716;9.266;2023-12-14T05:31:32;99680.38;;;6.29;100.00
17060;BME280;8646;49.716;9.266;2023-12-14T05:34:35;99679.53;;;6.27;100.00
17060;BME280;8646;49.716;9.266;2023-12-14T05:37:38;99687.72;;;6.24;100.00
17060;BME280;8646;49.716;9.266;2023-12-14T05:40:42;99688.66;;;6.23;100.00
17060;BME280;8646;49.716;9.266;2023-12-14T05:43:47;99701.25;;;6.21;100.00
17060;BME280;8646;49.716;9.266;2023-12-14T05:46:50;99698.56;;;6.21;100.00
17060;BME280;8646;49.716;9.266;2023-12-14T05:49:53;99713.84;;;6.19;100.00
17060;BME280;8646;49.716;9.266;2023-12-14T05:52:55;99720.28;;;6.15;100.00
17060;BME280;8646;49.716;9.266;2023-12-14T05:55:58;99734.63;;;6.14;100.00
17060;BME280;8646;49.716;9.266;2023-12-14T05:59:02;99733.88;;;6.09;100.00
17060;BME280;8646;49.716;9.266;2023-12-14T06:02:05;99749.81;;;6.15;100.00
17060;BME280;8646;49.716;9.266;2023-12-14T06:05:08;99750.50;;;6.22;100.00
17060;BME280;8646;49.716;9.266;2023-12-14T06:08:11;99753.22;;;6.20;100.00
17060;BME280;8646;49.716;9.266;2023-12-14T06:11:14;99761.13;;;6.25;100.00
17060;BME280;8646;49.716;9.266;2023-12-14T06:14:18;99766.34;;;6.29;100.00
17060;BME280;8646;49.716;9.266;2023-12-14T06:17:22;99760.13;;;6.27;100.00
17060;BME280;8646;49.716;9.266;2023-12-14T06:20:27;99764.53;;;6.30;100.00
17060;BME280;8646;49.716;9.266;2023-12-14T06:23:30;99767.53;;;6.21;100.00
17060;BME280;8646;49.716;9.266;2023-12-14T06:26:33;99773.22;;;6.11;100.00
17060;BME280;8646;49.716;9.266;2023-12-14T06:29:37;99776.78;;;6.12;100.00
17060;BME280;8646;49.716;9.266;2023-12-14T06:32:39;99775.84;;;6.13;100.00
17060;BME280;8646;49.716;9.266;2023-12-14T06:35:43;99785.81;;;6.09;100.00
17060;BME280;8646;49.716;9.266;2023-12-14T06:38:46;99792.03;;;6.11;100.00
17060;BME280;8646;49.716;9.266;2023-12-14T06:41:48;99791.19;;;6.09;100.00
17060;BME280;8646;49.716;9.266;2023-12-14T06:44:55;99809.31;;;6.03;100.00
17060;BME280;8646;49.716;9.266;2023-12-14T06:47:58;99813.97;;;5.98;100.00
17060;BME280;8646;49.716;9.266;2023-12-14T06:51:01;99825.72;;;5.94;100.00
17060;BME280;8646;49.716;9.266;2023-12-14T06:54:04;99836.50;;;5.92;100.00
17060;BME280;8646;49.716;9.266;2023-12-14T06:57:07;99846.28;;;5.95;100.00
17060;BME280;8646;49.716;9.266;2023-12-14T07:00:13;99842.63;;;5.97;100.00
17060;BME280;8646;49.716;9.266;2023-12-14T07:03:16;99855.13;;;5.98;100.00
17060;BME280;8646;49.716;9.266;2023-12-14T07:06:19;99861.19;;;6.05;100.00
17060;BME280;8646;49.716;9.266;2023-12-14T07:09:22;99855.81;;;6.05;100.00
17060;BME280;8646;49.716;9.266;2023-12-14T07:12:25;99879.50;;;6.20;100.00
17060;BME280;8646;49.716;9.266;2023-12-14T07:15:29;99883.88;;;6.24;100.00
17060;BME280;8646;49.716;9.266;2023-12-14T07:18:32;99885.41;;;6.31;100.00
17060;BME280;8646;49.716;9.266;2023-12-14T07:21:35;99870.28;;;6.29;100.00
17060;BME280;8646;49.716;9.266;2023-12-14T07:24:38;99885.06;;;6.42;100.00
17060;BME280;8646;49.716;9.266;2023-12-14T07:27:53;99894.63;;;6.50;100.00
17060;BME280;8646;49.716;9.266;2023-12-14T07:30:57;99898.09;;;6.54;100.00
17060;BME280;8646;49.716;9.266;2023-12-14T07:34:00;99896.13;;;6.59;100.00
17060;BME280;8646;49.716;9.266;2023-12-14T07:37:03;99902.38;;;6.60;100.00
17060;BME280;8646;49.716;9.266;2023-12-14T07:40:08;99908.56;;;6.63;100.00
17060;BME280;8646;49.716;9.266;2023-12-14T07:43:11;99916.47;;;6.68;100.00
17060;BME280;8646;49.716;9.266;2023-12-14T07:46:15;99914.59;;;6.70;100.00
17060;BME280;8646;49.716;9.266;2023-12-14T07:49:17;99915.28;;;6.76;100.00
17060;BME280;8646;49.716;9.266;2023-12-14T07:52:21;99925.91;;;6.81;100.00
17060;BME280;8646;49.716;9.266;2023-12-14T07:55:24;99931.28;;;6.81;100.00
17060;BME280;8646;49.716;9.266;2023-12-14T07:58:27;99935.59;;;6.85;100.00
17060;BME280;8646;49.716;9.266;2023-12-14T08:01:31;99948.31;;;7.06;100.00
17060;BME280;8646;49.716;9.266;2023-12-14T08:04:34;99944.06;;;7.25;100.00
17060;BME280;8646;49.716;9.266;2023-12-14T08:07:37;99945.38;;;7.39;100.00
17060;BME280;8646;49.716;9.266;2023-12-14T08:10:40;99950.75;;;7.39;100.00
17060;BME280;8646;49.716;9.266;2023-12-14T08:13:43;99958.97;;;7.36;100.00
17060;BME280;8646;49.716;9.266;2023-12-14T08:16:47;99981.47;;;7.33;100.00
17060;BME280;8646;49.716;9.266;2023-12-14T08:19:50;99985.00;;;7.35;100.00
17060;BME280;8646;49.716;9.266;2023-12-14T08:22:54;99984.97;;;7.37;100.00
17060;BME280;8646;49.716;9.266;2023-12-14T08:25:57;99977.63;;;7.40;100.00
17060;BME280;8646;49.716;9.266;2023-12-14T08:29:00;99984.81;;;7.40;100.00
17060;BME280;8646;49.716;9.266;2023-12-14T08:32:05;99999.97;;;7.44;100.00
17060;BME280;8646;49.716;9.266;2023-12-14T08:35:09;100004.34;;;7.46;100.00
17060;BME280;8646;49.716;9.266;2023-12-14T08:38:12;100009.63;;;7.49;100.00
17060;BME280;8646;49.716;9.266;2023-12-14T08:41:15;99995.28;;;7.49;100.00
17060;BME280;8646;49.716;9.266;2023-12-14T08:44:18;100010.28;;;7.56;100.00
17060;BME280;8646;49.716;9.266;2023-12-14T08:47:23;100030.88;;;7.57;100.00
17060;BME280;8646;49.716;9.266;2023-12-14T08:50:26;100031.63;;;7.62;100.00
17060;BME280;8646;49.716;9.266;2023-12-14T08:53:29;100030.56;;;7.66;100.00
17060;BME280;8646;49.716;9.266;2023-12-14T08:56:32;100029.03;;;7.59;100.00
17060;BME280;8646;49.716;9.266;2023-12-14T08:59:35;100030.56;;;7.66;100.00
17060;BME280;8646;49.716;9.266;2023-12-14T09:02:39;100046.31;;;7.78;100.00
17060;BME280;8646;49.716;9.266;2023-12-14T09:05:42;100048.72;;;7.86;100.00
17060;BME280;8646;49.716;9.266;2023-12-14T09:08:45;100053.00;;;7.91;100.00
17060;BME280;8646;49.716;9.266;2023-12-14T09:11:49;100066.25;;;7.97;100.00
17060;BME280;8646;49.716;9.266;2023-12-14T09:14:54;100068.72;;;8.03;100.00
17060;BME280;8646;49.716;9.266;2023-12-14T09:17:58;100060.63;;;8.03;100.00
17060;BME280;8646;49.716;9.266;2023-12-14T09:21:02;100074.84;;;8.09;100.00
17060;BME280;8646;49.716;9.266;2023-12-14T09:24:05;100077.34;;;8.13;100.00
17060;BME280;8646;49.716;9.266;2023-12-14T09:27:13;100089.06;;;8.12;100.00
17060;BME280;8646;49.716;9.266;2023-12-14T09:30:16;100094.41;;;8.14;100.00
17060;BME280;8646;49.716;9.266;2023-12-14T09:33:21;100076.94;;;8.00;100.00
17060;BME280;8646;49.716;9.266;2023-12-14T09:36:24;100110.34;;;8.20;100.00
17060;BME280;8646;49.716;9.266;2023-12-14T09:39:27;100115.63;;;8.23;100.00
17060;BME280;8646;49.716;9.266;2023-12-14T09:42:37;100125.38;;;8.27;100.00
17060;BME280;8646;49.716;9.266;2023-12-14T09:45:41;100115.63;;;8.23;100.00
17060;BME280;8646;49.716;9.266;2023-12-14T09:48:49;100130.53;;;8.34;100.00
17060;BME280;8646;49.716;9.266;2023-12-14T09:51:53;100126.53;;;8.45;100.00
17060;BME280;8646;49.716;9.266;2023-12-14T09:54:55;100134.47;;;8.49;100.00
17060;BME280;8646;49.716;9.266;2023-12-14T09:57:58;100134.34;;;8.52;100.00
17060;BME280;8646;49.716;9.266;2023-12-14T10:01:01;100101.00;;;8.30;100.00
17060;BME280;8646;49.716;9.266;2023-12-14T10:04:12;100135.06;;;8.57;100.00
17060;BME280;8646;49.716;9.266;2023-12-14T10:07:15;100075.44;;;8.17;100.00
17060;BME280;8646;49.716;9.266;2023-12-14T10:10:18;100145.56;;;8.65;100.00
17060;BME280;8646;49.716;9.266;2023-12-14T10:13:23;100129.53;;;8.60;100.00
17060;BME280;8646;49.716;9.266;2023-12-14T10:16:37;100152.31;;;8.76;100.00
17060;BME280;8646;49.716;9.266;2023-12-14T10:19:43;100102.75;;;8.56;100.00
17060;BME280;8646;49.716;9.266;2023-12-14T10:22:47;100151.25;;;8.80;100.00
17060;BME280;8646;49.716;9.266;2023-12-14T10:25:52;100151.56;;;8.73;100.00
17060;BME280;8646;49.716;9.266;2023-12-14T10:28:55;100164.06;;;8.75;100.00
17060;BME280;8646;49.716;9.266;2023-12-14T10:31:58;100167.69;;;8.74;100.00
17060;BME280;8646;49.716;9.266;2023-12-14T10:35:03;100170.38;;;8.74;100.00
17060;BME280;8646;49.716;9.266;2023-12-14T10:38:06;100173.97;;;8.75;100.00
17060;BME280;8646;49.716;9.266;2023-12-14T10:41:13;100173.19;;;8.71;100.00
17060;BME280;8646;49.716;9.266;2023-12-14T10:44:16;100184.22;;;8.65;100.00
17060;BME280;8646;49.716;9.266;2023-12-14T10:47:43;100183.72;;;8.54;100.00
17060;BME280;8646;49.716;9.266;2023-12-14T10:50:51;100191.94;;;8.51;100.00
17060;BME280;8646;49.716;9.266;2023-12-14T10:53:55;100182.28;;;8.44;100.00
17060;BME280;8646;49.716;9.266;2023-12-14T10:56:59;100190.38;;;8.44;100.00
17060;BME280;8646;49.716;9.266;2023-12-14T11:00:03;100191.06;;;8.51;100.00
17060;BME280;8646;49.716;9.266;2023-12-14T11:03:12;100159.09;;;8.14;100.00
17060;BME280;8646;49.716;9.266;2023-12-14T11:06:26;100204.09;;;8.38;100.00
17060;BME280;8646;49.716;9.266;2023-12-14T11:09:31;100212.97;;;8.41;100.00
17060;BME280;8646;49.716;9.266;2023-12-14T11:12:34;100210.25;;;8.41;100.00
17060;BME280;8646;49.716;9.266;2023-12-14T11:15:37;100221.09;;;8.40;100.00
17060;BME280;8646;49.716;9.266;2023-12-14T11:18:41;100199.22;;;8.23;100.00
17060;BME280;8646;49.716;9.266;2023-12-14T11:21:45;100230.13;;;8.39;100.00
17060;BME280;8646;49.716;9.266;2023-12-14T11:24:53;100238.03;;;8.43;100.00
17060;BME280;8646;49.716;9.266;2023-12-14T11:28:03;100228.13;;;8.44;100.00
17060;BME280;8646;49.716;9.266;2023-12-14T11:31:09;100197.06;;;8.08;100.00
17060;BME280;8646;49.716;9.266;2023-12-14T11:34:15;100235.69;;;8.34;100.00
17060;BME280;8646;49.716;9.266;2023-12-14T11:37:20;100247.97;;;8.43;100.00
17060;BME280;8646;49.716;9.266;2023-12-14T11:40:23;100231.28;;;8.30;100.00
17060;BME280;8646;49.716;9.266;2023-12-14T11:43:27;100262.47;;;8.39;100.00
17060;BME280;8646;49.716;9.266;2023-12-14T11:46:30;100245.63;;;8.32;100.00
17060;BME280;8646;49.716;9.266;2023-12-14T11:49:34;100263.94;;;8.49;100.00
17060;BME280;8646;49.716;9.266;2023-12-14T11:52:39;100267.88;;;8.39;100.00
17060;BME280;8646;49.716;9.266;2023-12-14T11:55:44;100269.41;;;8.46;100.00
17060;BME280;8646;49.716;9.266;2023-12-14T11:58:48;100271.84;;;8.54;100.00
17060;BME280;8646;49.716;9.266;2023-12-14T12:01:56;100280.34;;;8.43;100.00
17060;BME280;8646;49.716;9.266;2023-12-14T12:04:59;100278.63;;;8.40;100.00
17060;BME280;8646;49.716;9.266;2023-12-14T12:08:04;100276.81;;;8.41;100.00
17060;BME280;8646;49.716;9.266;2023-12-14T12:11:07;100270.56;;;8.39;100.00
17060;BME280;8646;49.716;9.266;2023-12-14T12:14:10;100289.03;;;8.51;100.00
17060;BME280;8646;49.716;9.266;2023-12-14T12:17:13;100268.97;;;8.33;100.00
17060;BME280;8646;49.716;9.266;2023-12-14T12:20:17;100295.78;;;8.38;100.00
17060;BME280;8646;49.716;9.266;2023-12-14T12:23:22;100313.72;;;8.39;100.00
17060;BME280;8646;49.716;9.266;2023-12-14T12:26:24;100308.22;;;8.42;100.00
17060;BME280;8646;49.716;9.266;2023-12-14T12:29:27;100277.28;;;8.26;100.00
17060;BME280;8646;49.716;9.266;2023-12-14T12:32:30;100312.34;;;8.52;100.00
17060;BME280;8646;49.716;9.266;2023-12-14T12:35:33;100314.88;;;8.58;100.00
17060;BME280;8646;49.716;9.266;2023-12-14T12:38:38;100306.97;;;8.52;100.00
17060;BME280;8646;49.716;9.266;2023-12-14T12:41:42;100317.56;;;8.58;100.00
17060;BME280;8646;49.716;9.266;2023-12-14T12:44:45;100311.41;;;8.53;100.00
17060;BME280;8646;49.716;9.266;2023-12-14T12:47:48;100305.31;;;8.48;100.00
17060;BME280;8646;49.716;9.266;2023-12-14T12:50:51;100314.25;;;8.50;100.00
17060;BME280;8646;49.716;9.266;2023-12-14T12:53:56;100316.84;;;8.52;100.00
17060;BME280;8646;49.716;9.266;2023-12-14T12:57:13;100321.41;;;8.51;100.00
17060;BME280;8646;49.716;9.266;2023-12-14T13:00:16;100328.88;;;8.43;100.00
17060;BME280;8646;49.716;9.266;2023-12-14T13:03:19;100333.31;;;8.44;100.00
17060;BME280;8646;49.716;9.266;2023-12-14T13:06:23;100341.41;;;8.44;100.00
17060;BME280;8646;49.716;9.266;2023-12-14T13:09:27;100342.41;;;8.41;100.00
17060;BME280;8646;49.716;9.266;2023-12-14T13:12:30;100347.78;;;8.41;100.00
17060;BME280;8646;49.716;9.266;2023-12-14T13:15:33;100344.72;;;8.52;100.00
17060;BME280;8646;49.716;9.266;2023-12-14T13:18:36;100364.66;;;8.48;100.00
17060;BME280;8646;49.716;9.266;2023-12-14T13:21:40;100362.16;;;8.42;100.00
17060;BME280;8646;49.716;9.266;2023-12-14T13:24:45;100361.06;;;8.48;100.00
17060;BME280;8646;49.716;9.266;2023-12-14T13:27:51;100375.44;;;8.48;100.00
17060;BME280;8646;49.716;9.266;2023-12-14T13:30:54;100373.38;;;8.56;100.00
17060;BME280;8646;49.716;9.266;2023-12-14T13:33:57;100375.91;;;8.61;100.00
17060;BME280;8646;49.716;9.266;2023-12-14T13:36:59;100374.88;;;8.65;100.00
17060;BME280;8646;49.716;9.266;2023-12-14T13:40:06;100377.66;;;8.62;100.00
17060;BME280;8646;49.716;9.266;2023-12-14T13:43:13;100383.84;;;8.65;100.00
17060;BME280;8646;49.716;9.266;2023-12-14T13:46:16;100389.91;;;8.72;100.00
17060;BME280;8646;49.716;9.266;2023-12-14T13:49:23;100399.50;;;8.80;100.00
17060;BME280;8646;49.716;9.266;2023-12-14T13:52:26;100402.31;;;8.77;100.00
17060;BME280;8646;49.716;9.266;2023-12-14T13:55:33;100414.03;;;8.76;100.00
17060;BME280;8646;49.716;9.266;2023-12-14T13:58:36;100413.97;;;8.78;100.00
17060;BME280;8646;49.716;9.266;2023-12-14T14:01:40;100421.81;;;8.86;100.00
17060;BME280;8646;49.716;9.266;2023-12-14T14:04:43;100426.94;;;8.93;100.00
17060;BME280;8646;49.716;9.266;2023-12-14T14:07:49;100433.13;;;8.97;100.00
17060;BME280;8646;49.716;9.266;2023-12-14T14:10:54;100433.97;;;8.99;100.00
17060;BME280;8646;49.716;9.266;2023-12-14T14:13:57;100431.31;;;8.97;100.00
17060;BME280;8646;49.716;9.266;2023-12-14T14:17:00;100452.88;;;8.99;100.00
17060;BME280;8646;49.716;9.266;2023-12-14T14:20:05;100444.16;;;8.91;100.00
17060;BME280;8646;49.716;9.266;2023-12-14T14:23:08;100458.41;;;8.94;100.00
17060;BME280;8646;49.716;9.266;2023-12-14T14:26:12;100460.25;;;8.92;100.00
17060;BME280;8646;49.716;9.266;2023-12-14T14:29:15;100464.91;;;8.89;100.00
17060;BME280;8646;49.716;9.266;2023-12-14T14:32:20;100467.69;;;8.86;100.00
17060;BME280;8646;49.716;9.266;2023-12-14T14:35:23;100471.31;;;8.85;100.00
17060;BME280;8646;49.716;9.266;2023-12-14T14:38:26;100489.44;;;8.81;100.00
17060;BME280;8646;49.716;9.266;2023-12-14T14:41:30;100490.59;;;8.74;100.00
17060;BME280;8646;49.716;9.266;2023-12-14T14:44:33;100496.94;;;8.71;100.00
17060;BME280;8646;49.716;9.266;2023-12-14T14:47:36;100497.00;;;8.70;100.00
17060;BME280;8646;49.716;9.266;2023-12-14T14:50:39;100506.94;;;8.68;100.00
17060;BME280;8646;49.716;9.266;2023-12-14T14:53:42;100503.69;;;8.58;100.00
17060;BME280;8646;49.716;9.266;2023-12-14T14:56:46;100516.88;;;8.67;100.00
17060;BME280;8646;49.716;9.266;2023-12-14T14:59:49;100520.59;;;8.63;100.00
17060;BME280;8646;49.716;9.266;2023-12-14T15:02:51;100527.97;;;8.58;100.00
17060;BME280;8646;49.716;9.266;2023-12-14T15:05:54;100536.09;;;8.57;100.00
17060;BME280;8646;49.716;9.266;2023-12-14T15:08:58;100542.47;;;8.54;100.00
17060;BME280;8646;49.716;9.266;2023-12-14T15:12:02;100553.28;;;8.53;100.00
17060;BME280;8646;49.716;9.266;2023-12-14T15:15:05;100555.09;;;8.52;100.00
17060;BME280;8646;49.716;9.266;2023-12-14T15:18:10;100560.59;;;8.49;100.00
17060;BME280;8646;49.716;9.266;2023-12-14T15:21:13;100567.78;;;8.50;100.00
17060;BME280;8646;49.716;9.266;2023-12-14T15:24:17;100575.91;;;8.49;100.00
17060;BME280;8646;49.716;9.266;2023-12-14T15:27:21;100584.03;;;8.47;100.00
17060;BME280;8646;49.716;9.266;2023-12-14T15:30:24;100588.59;;;8.45;100.00
17060;BME280;8646;49.716;9.266;2023-12-14T15:33:27;100594.97;;;8.43;100.00
17060;BME280;8646;49.716;9.266;2023-12-14T15:36:30;100595.03;;;8.41;100.00
17060;BME280;8646;49.716;9.266;2023-12-14T15:39:35;100612.25;;;8.35;100.00
17060;BME280;8646;49.716;9.266;2023-12-14T15:42:39;100618.63;;;8.33;100.00
17060;BME280;8646;49.716;9.266;2023-12-14T15:45:42;100616.00;;;8.28;100.00
17060;BME280;8646;49.716;9.266;2023-12-14T15:48:45;100634.84;;;8.30;100.00
17060;BME280;8646;49.716;9.266;2023-12-14T15:51:48;100631.31;;;8.28;100.00
17060;BME280;8646;49.716;9.266;2023-12-14T15:54:51;100637.53;;;8.30;100.00
17060;BME280;8646;49.716;9.266;2023-12-14T15:57:55;100636.66;;;8.31;100.00
17060;BME280;8646;49.716;9.266;2023-12-14T16:00:58;100638.44;;;8.32;100.00
17060;BME280;8646;49.716;9.266;2023-12-14T16:04:01;100637.59;;;8.28;100.00
17060;BME280;8646;49.716;9.266;2023-12-14T16:07:03;100652.84;;;8.31;100.00
17060;BME280;8646;49.716;9.266;2023-12-14T16:10:08;100660.03;;;8.29;100.00
17060;BME280;8646;49.716;9.266;2023-12-14T16:13:12;100669.94;;;8.28;100.00
17060;BME280;8646;49.716;9.266;2023-12-14T16:16:15;100667.31;;;8.27;100.00
17060;BME280;8646;49.716;9.266;2023-12-14T16:19:18;100679.84;;;8.28;100.00
17060;BME280;8646;49.716;9.266;2023-12-14T16:22:22;100679.03;;;8.26;100.00